Time;durP1;ratioP1;P1;durP2;ratioP2;P2;SDS_P1;SDS_P2;PMS_P1;PMS_P2;Temp;Humidity;BMP_temperature;BMP_pressure;BME280_temperature;BME280_humidity;BME280_pressure;Samples;Min_cycle;Max_cycle;Signal;HPM_P1;HPM_P2
2021/08/09 00:00:57;;;;;;;10.75;0.50;;;15.20;99.90;;;;;;5077206;28;20016;-76
2021/08/09 00:03:23;;;;;;;6.68;0.17;;;15.10;99.90;;;;;;5077877;28;20602;-79
2021/08/09 00:05:49;;;;;;;3.72;0.50;;;15.10;99.90;;;;;;5078275;28;20366;-79
2021/08/09 00:08:14;;;;;;;5.65;0.60;;;15.20;99.90;;;;;;5096086;28;20496;-79
2021/08/09 00:10:40;;;;;;;5.40;0.75;;;15.20;99.90;;;;;;5109950;22;20028;-78
2021/08/09 00:13:05;;;;;;;7.13;0.57;;;15.20;99.90;;;;;;5078987;28;20050;-78
2021/08/09 00:15:31;;;;;;;3.13;0.55;;;17.50;99.90;;;;;;5095550;28;20546;-79
2021/08/09 00:17:57;;;;;;;5.25;0.20;;;15.10;99.90;;;;;;5095682;28;20046;-79
2021/08/09 00:20:22;;;;;;;12.10;0.32;;;15.20;99.90;;;;;;5095429;28;20024;-79
2021/08/09 00:22:48;;;;;;;10.48;1.33;;;15.20;99.90;;;;;;5095781;28;20012;-79
2021/08/09 00:25:15;;;;;;;13.73;1.40;;;15.20;99.90;;;;;;5077055;28;20017;-77
2021/08/09 00:27:41;;;;;;;10.25;0.77;;;15.10;99.90;;;;;;5076968;28;20024;-77
2021/08/09 00:30:08;;;;;;;5.35;0.30;;;15.10;99.90;;;;;;5076794;28;20115;-77
2021/08/09 00:32:34;;;;;;;4.80;0.85;;;15.20;99.90;;;;;;5076606;28;20419;-76
2021/08/09 00:34:59;;;;;;;5.70;0.63;;;15.20;99.90;;;;;;5094948;28;20027;-77
2021/08/09 00:37:25;;;;;;;5.35;0.22;;;15.10;99.90;;;;;;5076615;28;20489;-77
2021/08/09 00:39:50;;;;;;;6.20;0.52;;;15.10;99.90;;;;;;5094661;28;20013;-77
2021/08/09 00:42:16;;;;;;;9.95;0.82;;;15.10;99.90;;;;;;5076488;28;20055;-76
2021/08/09 00:44:43;;;;;;;4.32;0.10;;;15.10;99.90;;;;;;5093948;28;20023;-77
2021/08/09 00:47:09;;;;;;;7.57;0.10;;;15.10;99.90;;;;;;5076241;28;20024;-76
2021/08/09 00:49:35;;;;;;;7.55;0.75;;;15.10;99.90;;;;;;5076494;28;20046;-77
2021/08/09 00:52:01;;;;;;;7.68;0.52;;;15.10;99.90;;;;;;5094545;28;20028;-77
2021/08/09 00:54:27;;;;;;;6.45;0.70;;;15.10;99.90;;;;;;5095097;28;20047;-76
2021/08/09 00:56:53;;;;;;;4.63;0.30;;;15.00;99.90;;;;;;5094730;28;20024;-76
2021/08/09 00:59:18;;;;;;;7.22;0.68;;;15.00;99.90;;;;;;5076230;28;20012;-76
2021/08/09 01:01:44;;;;;;;7.60;0.45;;;15.00;99.90;;;;;;5094148;28;20069;-76
2021/08/09 01:04:10;;;;;;;6.88;0.43;;;15.00;99.90;;;;;;5094606;28;20020;-76
2021/08/09 01:06:37;;;;;;;2.53;0.10;;;15.10;99.90;;;;;;5094357;28;20497;-76
2021/08/09 01:09:18;;;;;;;6.05;0.63;;;15.10;99.90;;;;;;5076103;28;20031;-76
2021/08/09 01:11:58;;;;;;;10.43;0.85;;;15.00;99.90;;;;;;5075861;28;20036;-76
2021/08/09 01:14:50;;;;;;;8.25;0.65;;;15.00;99.90;;;;;;5094125;28;20023;-76
2021/08/09 01:17:18;;;;;;;5.20;1.45;;;15.00;99.90;;;;;;5094035;28;20082;-78
2021/08/09 01:20:08;;;;;;;7.97;0.20;;;15.00;99.90;;;;;;5075945;28;20028;-76
2021/08/09 01:22:51;;;;;;;9.52;1.42;;;15.00;99.90;;;;;;5093955;28;20046;-75
2021/08/09 01:25:38;;;;;;;5.00;0.20;;;14.90;99.90;;;;;;5075653;28;20486;-75
2021/08/09 01:28:06;;;;;;;2.70;0.93;;;14.90;99.90;;;;;;5093752;28;20020;-75
2021/08/09 01:30:32;;;;;;;7.63;0.17;;;14.90;99.90;;;;;;5093845;28;20081;-75
2021/08/09 01:32:58;;;;;;;6.60;0.32;;;14.90;99.90;;;;;;5075910;28;20116;-78
2021/08/09 01:35:27;;;;;;;7.78;0.80;;;14.90;99.90;;;;;;5076148;28;20048;-78
2021/08/09 01:37:55;;;;;;;4.10;0.13;;;14.70;99.90;;;;;;5076219;28;20473;-78
2021/08/09 01:40:22;;;;;;;8.20;1.25;;;14.70;99.90;;;;;;5094751;28;20262;-78
2021/08/09 01:42:48;;;;;;;8.50;0.38;;;14.70;99.90;;;;;;5075968;28;20024;-78
2021/08/09 01:45:16;;;;;;;8.02;0.77;;;14.70;99.90;;;;;;5094002;28;20055;-78
2021/08/09 01:47:43;;;;;;;5.68;0.32;;;14.60;99.90;;;;;;5093888;28;20024;-76
2021/08/09 01:50:11;;;;;;;6.60;0.28;;;14.50;99.90;;;;;;5093499;28;20050;-76
2021/08/09 01:52:38;;;;;;;6.78;1.23;;;14.60;99.90;;;;;;5093434;28;20020;-76
2021/08/09 01:55:05;;;;;;;5.82;1.20;;;14.50;99.90;;;;;;5075244;28;20027;-76
2021/08/09 01:57:30;;;;;;;6.72;0.38;;;14.40;99.90;;;;;;5075040;28;20030;-76
2021/08/09 01:59:56;;;;;;;8.32;0.70;;;14.40;99.90;;;;;;5093323;28;20013;-77
2021/08/09 02:02:29;;;;;;;9.30;1.00;;;14.40;99.90;;;;;;5075162;28;20016;-76
2021/08/09 02:04:55;;;;;;;11.25;0.77;;;14.50;99.90;;;;;;5093386;28;20016;-76
2021/08/09 02:07:21;;;;;;;4.78;0.57;;;14.40;99.90;;;;;;5075188;28;20032;-76
2021/08/09 02:09:47;;;;;;;7.35;0.50;;;14.40;99.90;;;;;;5075166;28;20027;-77
2021/08/09 02:12:13;;;;;;;5.93;1.05;;;14.30;99.90;;;;;;5093303;28;20082;-76
2021/08/09 02:14:51;;;;;;;5.28;0.13;;;14.30;99.90;;;;;;5075158;28;20454;-76
2021/08/09 02:17:20;;;;;;;15.18;1.25;;;14.30;99.90;;;;;;5075999;28;20066;-79
2021/08/09 02:20:10;;;;;;;9.85;0.63;;;14.30;99.90;;;;;;5075482;28;20035;-79
2021/08/09 02:22:51;;;;;;;7.68;0.60;;;14.30;99.90;;;;;;5093547;28;20386;-78
2021/08/09 02:25:21;;;;;;;7.50;0.20;;;14.30;99.90;;;;;;5093964;28;20106;-78
2021/08/09 02:28:15;;;;;;;4.97;0.30;;;14.30;99.90;;;;;;5075828;28;20032;-78
2021/08/09 02:30:50;;;;;;;5.28;0.20;;;14.30;99.90;;;;;;5094206;28;20470;-79
2021/08/09 02:33:16;;;;;;;8.30;1.05;;;14.30;99.90;;;;;;5093282;28;20020;-76
2021/08/09 02:35:44;;;;;;;7.93;0.40;;;14.30;99.90;;;;;;5074870;28;20024;-79
2021/08/09 02:38:10;;;;;;;3.45;0.50;;;14.30;99.90;;;;;;5093987;28;20103;-79
2021/08/09 02:40:37;;;;;;;8.10;0.73;;;14.20;99.90;;;;;;5075688;28;20017;-79
2021/08/09 02:43:03;;;;;;;7.45;0.75;;;14.20;99.90;;;;;;5093980;28;20103;-79
2021/08/09 02:45:29;;;;;;;7.07;0.70;;;14.20;99.90;;;;;;5093393;28;20024;-79
2021/08/09 02:47:55;;;;;;;6.00;0.35;;;14.20;99.90;;;;;;5093367;28;20028;-79
2021/08/09 02:50:21;;;;;;;9.23;0.95;;;14.20;99.90;;;;;;5075471;28;20058;-79
2021/08/09 02:52:47;;;;;;;3.45;0.60;;;14.20;99.90;;;;;;5074950;28;20442;-79
2021/08/09 02:55:15;;;;;;;7.10;0.73;;;14.20;99.90;;;;;;5075290;28;20025;-79
2021/08/09 02:57:42;;;;;;;5.80;1.13;;;14.20;99.90;;;;;;5075188;28;20133;-79
2021/08/09 03:00:09;;;;;;;8.65;0.47;;;14.20;99.90;;;;;;5093205;28;20028;-77
2021/08/09 03:02:38;;;;;;;3.50;0.10;;;14.20;99.90;;;;;;5092870;28;20016;-77
2021/08/09 03:05:06;;;;;;;4.45;0.30;;;14.20;99.90;;;;;;5094117;28;20023;-77
2021/08/09 03:07:35;;;;;;;9.18;0.30;;;14.20;99.90;;;;;;5092924;28;20017;-77
2021/08/09 03:10:01;;;;;;;4.15;0.85;;;14.20;99.90;;;;;;5077856;28;20044;-77
2021/08/09 03:12:27;;;;;;;5.85;0.57;;;14.20;99.90;;;;;;5096325;28;20386;-77
2021/08/09 03:14:52;;;;;;;5.15;0.13;;;14.20;99.90;;;;;;5096319;28;20023;-77
2021/08/09 03:17:18;;;;;;;7.65;0.40;;;14.20;99.90;;;;;;5096415;28;20028;-77
2021/08/09 03:19:43;;;;;;;4.90;0.63;;;14.20;99.90;;;;;;5096647;28;20016;-77
2021/08/09 03:22:10;;;;;;;6.00;0.40;;;14.20;99.90;;;;;;5078528;28;20058;-76
2021/08/09 03:24:36;;;;;;;5.20;0.70;;;14.20;99.90;;;;;;5096419;28;20008;-77
2021/08/09 03:27:02;;;;;;;5.18;0.38;;;14.20;99.90;;;;;;5096163;28;20031;-77
2021/08/09 03:29:27;;;;;;;6.75;0.43;;;14.30;99.90;;;;;;5096164;28;20024;-76
2021/08/09 03:31:53;;;;;;;7.93;1.45;;;14.30;99.90;;;;;;5096177;28;20051;-76
2021/08/09 03:34:19;;;;;;;8.02;0.82;;;14.30;99.90;;;;;;5077835;28;20020;-76
2021/08/09 03:36:46;;;;;;;10.77;0.60;;;14.40;99.90;;;;;;5096390;28;20058;-79
2021/08/09 03:39:12;;;;;;;6.65;0.22;;;14.40;99.90;;;;;;5079141;28;20382;-79
2021/08/09 03:41:38;;;;;;;4.93;0.22;;;14.40;99.90;;;;;;5078808;28;20393;-79
2021/08/09 03:44:04;;;;;;;4.47;0.20;;;14.50;99.90;;;;;;5078422;28;20012;-79
2021/08/09 03:46:30;;;;;;;12.65;0.95;;;14.50;99.90;;;;;;5077942;28;20125;-79
2021/08/09 03:48:56;;;;;;;6.88;0.30;;;14.40;99.90;;;;;;5077974;28;20479;-79
2021/08/09 03:51:22;;;;;;;10.20;1.05;;;14.40;99.90;;;;;;5096072;28;20054;-79
2021/08/09 03:53:47;;;;;;;7.50;0.45;;;14.40;99.90;;;;;;5077579;28;20024;-76
2021/08/09 03:56:13;;;;;;;9.27;0.45;;;14.40;99.90;;;;;;5095458;28;20385;-76
2021/08/09 03:58:39;;;;;;;9.52;0.43;;;14.40;99.90;;;;;;5077358;28;20017;-79
2021/08/09 04:01:06;;;;;;;5.95;0.38;;;14.40;99.90;;;;;;5077911;28;20359;-79
2021/08/09 04:03:32;;;;;;;6.95;0.88;;;14.40;99.90;;;;;;5077480;28;20016;-76
2021/08/09 04:05:57;;;;;;;6.13;0.55;;;14.40;99.90;;;;;;5095303;28;20053;-76
2021/08/09 04:08:23;;;;;;;14.02;1.65;;;14.30;99.90;;;;;;5095230;28;20062;-76
2021/08/09 04:10:49;;;;;;;10.20;0.57;;;14.30;99.90;;;;;;5095078;28;20499;-76
2021/08/09 04:13:14;;;;;;;7.28;0.40;;;14.30;99.90;;;;;;5095247;28;20028;-77
2021/08/09 04:15:40;;;;;;;6.00;0.45;;;14.30;99.90;;;;;;5076933;28;20016;-76
2021/08/09 04:18:05;;;;;;;2.88;0.35;;;14.30;99.90;;;;;;5094950;28;20031;-76
2021/08/09 04:20:31;;;;;;;6.38;0.35;;;14.30;99.90;;;;;;5076750;28;20020;-76
2021/08/09 04:22:56;;;;;;;8.32;1.15;;;14.30;99.90;;;;;;5076878;28;20030;-76
2021/08/09 04:25:24;;;;;;;4.25;1.13;;;14.30;99.90;;;;;;5094971;28;20024;-76
2021/08/09 04:27:50;;;;;;;6.75;0.55;;;14.30;99.90;;;;;;5076388;28;20055;-76
2021/08/09 04:30:15;;;;;;;4.50;0.22;;;14.30;99.90;;;;;;5095098;28;20063;-77
2021/08/09 04:32:42;;;;;;;6.60;1.13;;;14.30;99.90;;;;;;5094777;28;20043;-76
2021/08/09 04:35:09;;;;;;;7.18;0.22;;;14.30;99.90;;;;;;5094617;28;20032;-76
2021/08/09 04:37:35;;;;;;;3.08;0.35;;;14.30;99.90;;;;;;5095245;28;20024;-76
2021/08/09 04:40:01;;;;;;;9.52;0.70;;;14.30;99.90;;;;;;5077662;28;20035;-76
2021/08/09 04:42:27;;;;;;;7.70;0.85;;;14.30;99.90;;;;;;5094640;28;20021;-77
2021/08/09 04:44:52;;;;;;;10.65;0.68;;;14.30;99.90;;;;;;5076445;28;20055;-77
2021/08/09 04:47:18;;;;;;;9.32;0.70;;;14.30;99.90;;;;;;5094517;28;20023;-77
2021/08/09 04:49:44;;;;;;;5.28;0.15;;;14.40;99.90;;;;;;5094659;28;20470;-77
2021/08/09 04:52:09;;;;;;;8.50;1.10;;;14.30;99.90;;;;;;5076502;28;20008;-78
2021/08/09 04:54:35;;;;;;;8.25;0.22;;;14.40;99.90;;;;;;5095333;28;20469;-78
2021/08/09 04:57:01;;;;;;;4.20;0.30;;;14.40;99.90;;;;;;5094381;28;20477;-76
2021/08/09 04:59:26;;;;;;;8.25;0.20;;;14.40;99.90;;;;;;5094329;28;20024;-76
2021/08/09 05:01:52;;;;;;;2.58;0.10;;;14.40;99.90;;;;;;5094146;28;20024;-76
2021/08/09 05:04:17;;;;;;;8.95;0.45;;;14.40;99.90;;;;;;5094482;28;20027;-76
2021/08/09 05:06:43;;;;;;;8.60;0.60;;;14.40;99.90;;;;;;5076503;28;20115;-79
2021/08/09 05:09:08;;;;;;;5.90;0.10;;;14.50;99.90;;;;;;5077055;28;20485;-79
2021/08/09 05:11:34;;;;;;;5.68;0.20;;;14.50;99.90;;;;;;5094563;28;20036;-79
2021/08/09 05:13:59;;;;;;;5.10;0.25;;;14.50;99.90;;;;;;5094811;28;20024;-79
2021/08/09 05:16:25;;;;;;;4.88;0.85;;;14.50;99.90;;;;;;5095098;28;20047;-79
2021/08/09 05:18:52;;;;;;;3.45;0.32;;;14.50;99.90;;;;;;5076245;28;20016;-78
2021/08/09 05:21:18;;;;;;;6.25;0.63;;;14.60;99.90;;;;;;5076280;28;20481;-75
2021/08/09 05:23:45;;;;;;;4.88;0.20;;;14.60;99.90;;;;;;5094230;28;20031;-78
2021/08/09 05:26:11;;;;;;;7.15;1.13;;;14.60;99.90;;;;;;5094733;28;20033;-79
2021/08/09 05:28:37;;;;;;;9.35;0.45;;;14.60;99.90;;;;;;5075992;28;20032;-77
2021/08/09 05:31:03;;;;;;;4.32;0.60;;;14.70;99.90;;;;;;5075219;28;20028;-76
2021/08/09 05:33:29;;;;;;;7.10;0.35;;;14.60;99.90;;;;;;5075593;28;20032;-76
2021/08/09 05:35:55;;;;;;;2.38;0.55;;;14.60;99.90;;;;;;5093567;28;20028;-76
2021/08/09 05:38:21;;;;;;;8.45;0.65;;;14.60;99.90;;;;;;5075527;28;20454;-76
2021/08/09 05:40:46;;;;;;;4.50;0.70;;;14.60;99.90;;;;;;5093773;28;20660;-76
2021/08/09 05:43:12;;;;;;;6.00;0.20;;;14.60;99.90;;;;;;5075453;28;20020;-76
2021/08/09 05:45:37;;;;;;;6.38;0.30;;;14.50;99.90;;;;;;5075740;28;20028;-76
2021/08/09 05:48:03;;;;;;;6.15;0.68;;;14.60;99.90;;;;;;5093772;28;20023;-76
2021/08/09 05:50:29;;;;;;;7.97;0.60;;;14.60;99.90;;;;;;5093358;28;20107;-76
2021/08/09 05:52:54;;;;;;;6.53;0.45;;;14.60;99.90;;;;;;5093800;28;20427;-76
2021/08/09 05:55:23;;;;;;;4.72;0.38;;;14.60;99.90;;;;;;5093387;28;20028;-76
2021/08/09 05:57:49;;;;;;;4.93;0.30;;;14.60;99.90;;;;;;5075347;28;20362;-76
2021/08/09 06:00:15;;;;;;;2.75;0.20;;;14.60;99.90;;;;;;5093702;28;20509;-79
2021/08/09 06:02:44;;;;;;;2.85;0.45;;;14.80;99.90;;;;;;5076294;28;20016;-78
2021/08/09 06:05:10;;;;;;;3.40;0.40;;;15.00;99.90;;;;;;5093949;28;20020;-76
2021/08/09 06:07:37;;;;;;;4.40;0.13;;;15.10;99.90;;;;;;5075309;28;20021;-76
2021/08/09 06:10:03;;;;;;;5.13;0.20;;;15.30;99.90;;;;;;5075778;28;20106;-77
2021/08/09 06:12:28;;;;;;;4.35;0.40;;;15.40;99.90;;;;;;5076008;28;20101;-79
2021/08/09 06:14:54;;;;;;;9.68;0.10;;;15.60;99.90;;;;;;5076051;28;20021;-78
2021/08/09 06:17:19;;;;;;;3.90;0.60;;;15.70;99.90;;;;;;5093758;28;20028;-79
2021/08/09 06:19:45;;;;;;;3.42;0.15;;;15.90;99.90;;;;;;5076163;28;20024;-79
2021/08/09 06:22:10;;;;;;;7.18;1.02;;;15.90;99.90;;;;;;5093602;28;20055;-79
2021/08/09 06:24:36;;;;;;;6.28;0.05;;;16.00;99.90;;;;;;5075825;28;20127;-79
2021/08/09 06:27:02;;;;;;;4.40;0.65;;;16.10;99.90;;;;;;5094129;28;20016;-77
2021/08/09 06:29:27;;;;;;;5.93;0.22;;;16.20;99.90;;;;;;5093884;28;20393;-76
2021/08/09 06:31:53;;;;;;;5.22;0.77;;;16.30;99.90;;;;;;5075331;28;20048;-76
2021/08/09 06:34:19;;;;;;;4.38;0.32;;;16.40;99.90;;;;;;5093103;28;20095;-76
2021/08/09 06:36:45;;;;;;;8.38;0.30;;;16.60;99.90;;;;;;5093788;28;20028;-79
2021/08/09 06:39:12;;;;;;;5.55;0.30;;;16.70;99.90;;;;;;5076320;28;20069;-79
2021/08/09 06:41:38;;;;;;;0.17;0.00;;;16.80;99.90;;;;;;5093350;28;20016;-79
2021/08/09 06:44:04;;;;;;;6.22;0.52;;;16.90;99.90;;;;;;5089922;23;20043;-76
2021/08/09 06:46:29;;;;;;;7.82;0.30;;;16.90;99.90;;;;;;5078703;28;20058;-76
2021/08/09 06:48:55;;;;;;;5.57;0.57;;;17.00;99.90;;;;;;5079083;28;20020;-76
2021/08/09 06:51:21;;;;;;;3.72;0.00;;;17.00;99.90;;;;;;5096713;28;20024;-76
2021/08/09 06:53:46;;;;;;;1.65;0.00;;;17.00;99.90;;;;;;5078547;28;20043;-76
2021/08/09 06:56:14;;;;;;;2.72;0.00;;;16.90;99.90;;;;;;5097177;28;20050;-76
2021/08/09 06:58:40;;;;;;;4.43;0.67;;;17.00;99.90;;;;;;5096679;28;20012;-76
2021/08/09 07:01:06;;;;;;;4.32;0.28;;;17.00;99.90;;;;;;5096598;28;20291;-76
2021/08/09 07:03:32;;;;;;;2.10;0.13;;;17.00;99.90;;;;;;5079978;28;20173;-78
2021/08/09 07:05:58;;;;;;;5.20;0.30;;;17.00;99.90;;;;;;5078633;28;20020;-76
2021/08/09 07:08:24;;;;;;;3.60;0.28;;;16.90;99.90;;;;;;5096690;28;20063;-77
2021/08/09 07:10:51;;;;;;;4.40;0.57;;;16.90;99.90;;;;;;5096473;28;20024;-76
2021/08/09 07:13:18;;;;;;;5.97;0.57;;;16.90;99.90;;;;;;5096407;28;20107;-76
2021/08/09 07:15:43;;;;;;;2.42;0.10;;;17.00;99.90;;;;;;5078045;28;20508;-76
2021/08/09 07:18:09;;;;;;;4.07;0.10;;;17.10;99.90;;;;;;5096416;28;20104;-78
2021/08/09 07:20:35;;;;;;;3.67;0.10;;;17.20;99.90;;;;;;5079137;28;20021;-78
2021/08/09 07:23:01;;;;;;;3.60;0.00;;;17.50;99.90;;;;;;5096563;28;20542;-76
2021/08/09 07:25:27;;;;;;;5.20;0.55;;;17.50;99.90;;;;;;5096539;28;20028;-79
2021/08/09 07:27:53;;;;;;;0.77;0.00;;;17.60;99.90;;;;;;5096914;28;20028;-79
2021/08/09 07:30:18;;;;;;;5.78;0.45;;;17.80;99.90;;;;;;5078422;28;20028;-76
2021/08/09 07:32:44;;;;;;;5.75;0.60;;;17.90;99.90;;;;;;5077771;28;20447;-76
2021/08/09 07:35:11;;;;;;;4.93;0.10;;;18.00;99.90;;;;;;5095898;28;20393;-75
2021/08/09 07:37:36;;;;;;;1.67;0.00;;;18.00;99.90;;;;;;5096132;28;20493;-75
2021/08/09 07:40:04;;;;;;;6.07;0.52;;;18.10;99.90;;;;;;5096457;28;20027;-78
2021/08/09 07:42:29;;;;;;;3.63;0.55;;;18.10;99.90;;;;;;5095860;28;20025;-76
2021/08/09 07:44:56;;;;;;;4.40;0.00;;;18.20;99.90;;;;;;5096113;28;20028;-78
2021/08/09 07:47:22;;;;;;;6.90;0.63;;;18.30;99.90;;;;;;5096667;28;20081;-78
2021/08/09 07:49:47;;;;;;;4.65;0.30;;;18.30;99.90;;;;;;5078221;28;20024;-79
2021/08/09 07:52:13;;;;;;;1.45;0.20;;;18.30;99.90;;;;;;5096718;28;20024;-78
2021/08/09 07:54:39;;;;;;;4.15;0.05;;;18.30;99.90;;;;;;5077674;28;20106;-79
2021/08/09 07:57:06;;;;;;;1.67;0.03;;;18.60;99.90;;;;;;5096426;28;20039;-78
2021/08/09 07:59:32;;;;;;;2.97;0.00;;;18.60;99.90;;;;;;5078415;28;20034;-78
2021/08/09 08:02:01;;;;;;;3.92;0.30;;;18.80;99.90;;;;;;5077864;28;20411;-78
2021/08/09 08:04:27;;;;;;;2.00;0.10;;;19.00;99.90;;;;;;5078183;28;20085;-78
2021/08/09 08:06:52;;;;;;;0.52;0.00;;;19.10;99.90;;;;;;5096079;28;20016;-78
2021/08/09 08:09:18;;;;;;;1.98;0.20;;;19.10;99.90;;;;;;5078618;28;20069;-78
2021/08/09 08:11:43;;;;;;;2.17;0.20;;;19.10;99.90;;;;;;5077880;28;20034;-78
2021/08/09 08:14:09;;;;;;;8.07;0.73;;;18.90;99.90;;;;;;5096612;28;20028;-78
2021/08/09 08:16:34;;;;;;;3.38;0.00;;;18.80;99.90;;;;;;5096150;28;20062;-78
2021/08/09 08:19:00;;;;;;;5.25;0.15;;;18.70;99.90;;;;;;5095971;28;20016;-78
2021/08/09 08:21:25;;;;;;;3.13;0.10;;;18.60;99.90;;;;;;5077844;28;20020;-78
2021/08/09 08:23:51;;;;;;;1.50;0.35;;;18.60;99.90;;;;;;5077099;28;20023;-76
2021/08/09 08:26:16;;;;;;;4.47;0.03;;;18.60;99.90;;;;;;5095570;28;20035;-77
2021/08/09 08:28:42;;;;;;;1.90;0.20;;;18.70;99.90;;;;;;5076835;28;20020;-76
2021/08/09 08:31:07;;;;;;;3.45;0.00;;;18.70;99.90;;;;;;5076713;28;20020;-76
2021/08/09 08:33:33;;;;;;;2.17;0.10;;;18.70;99.90;;;;;;5076731;28;20024;-76
2021/08/09 08:35:59;;;;;;;3.40;0.32;;;18.80;99.90;;;;;;5076684;28;20121;-76
2021/08/09 08:38:24;;;;;;;3.25;0.63;;;18.80;99.90;;;;;;5094756;28;20020;-76
2021/08/09 08:40:51;;;;;;;0.85;0.00;;;18.90;99.90;;;;;;5076895;28;20047;-78
2021/08/09 08:43:21;;;;;;;5.20;0.03;;;19.00;99.90;;;;;;5095521;28;20028;-78
2021/08/09 08:45:56;;;;;;;3.53;0.05;;;18.80;99.90;;;;;;5095133;28;20036;-76
2021/08/09 08:48:23;;;;;;;3.15;0.30;;;19.10;99.90;;;;;;5095516;28;20107;-79
2021/08/09 08:50:48;;;;;;;2.30;0.00;;;19.30;99.90;;;;;;5095054;28;20032;-76
2021/08/09 08:53:14;;;;;;;6.57;0.00;;;19.30;99.90;;;;;;5094449;28;20420;-76
2021/08/09 08:55:39;;;;;;;1.58;0.17;;;19.40;99.90;;;;;;5094739;28;20071;-78
2021/08/09 08:58:05;;;;;;;6.65;0.10;;;19.40;99.90;;;;;;5077579;28;20022;-78
2021/08/09 09:00:38;;;;;;;3.78;0.00;;;19.50;99.90;;;;;;5095369;28;20595;-78
2021/08/09 09:03:16;;;;;;;8.32;0.70;;;19.60;99.90;;;;;;5095141;28;20031;-78
2021/08/09 09:06:03;;;;;;;4.20;0.10;;;19.60;99.90;;;;;;5095216;28;20521;-78
2021/08/09 09:08:55;;;;;;;1.45;0.10;;;19.70;99.90;;;;;;5075790;28;20066;-75
2021/08/09 09:11:24;;;;;;;2.95;0.20;;;19.70;99.90;;;;;;5090139;28;20062;-75
2021/08/09 09:13:55;;;;;;;5.75;0.10;;;19.70;99.90;;;;;;5075971;28;20595;-75
2021/08/09 09:16:20;;;;;;;3.72;0.10;;;19.70;99.90;;;;;;5093928;28;20020;-75
2021/08/09 09:18:52;;;;;;;7.00;0.50;;;19.70;99.90;;;;;;5075798;28;20028;-75
2021/08/09 09:21:35;;;;;;;2.78;0.20;;;19.70;99.90;;;;;;5094180;28;20024;-75
2021/08/09 09:24:18;;;;;;;2.45;0.00;;;19.60;99.90;;;;;;5075782;28;20031;-76
2021/08/09 09:26:46;;;;;;;1.38;0.10;;;19.70;99.90;;;;;;5075742;28;20323;-76
2021/08/09 09:29:16;;;;;;;3.35;0.47;;;19.60;99.90;;;;;;5094405;28;20068;-78
2021/08/09 09:31:43;;;;;;;2.75;0.10;;;19.60;99.90;;;;;;5094450;28;20031;-78
2021/08/09 09:34:12;;;;;;;1.50;0.00;;;19.50;99.90;;;;;;5094169;28;20528;-78
2021/08/09 09:36:48;;;;;;;3.25;0.00;;;19.50;99.90;;;;;;5094217;28;20031;-78
2021/08/09 09:39:40;;;;;;;8.18;0.00;;;19.60;99.90;;;;;;5076048;28;20481;-76
2021/08/09 09:42:11;;;;;;;2.22;0.00;;;19.70;99.90;;;;;;5075457;28;20016;-76
2021/08/09 09:44:42;;;;;;;1.85;0.00;;;19.80;99.90;;;;;;5093713;28;20393;-76
2021/08/09 09:47:23;;;;;;;2.92;0.00;;;19.90;99.90;;;;;;5075504;28;20031;-75
2021/08/09 09:49:53;;;;;;;2.08;0.00;;;19.90;99.90;;;;;;5094342;28;20028;-78
2021/08/09 09:52:39;;;;;;;6.43;0.00;;;20.10;99.90;;;;;;5076193;28;20027;-78
2021/08/09 09:55:07;;;;;;;0.52;0.20;;;20.20;99.90;;;;;;5076639;28;20477;-78
2021/08/09 09:57:33;;;;;;;2.28;0.00;;;20.30;99.90;;;;;;5094799;28;20111;-78
2021/08/09 09:59:59;;;;;;;1.08;0.00;;;20.40;99.90;;;;;;5076822;28;20101;-76
2021/08/09 10:02:26;;;;;;;0.70;0.00;;;20.50;99.90;;;;;;5094555;28;20012;-78
2021/08/09 10:04:52;;;;;;;1.13;0.15;;;20.60;99.90;;;;;;5094003;28;20097;-76
2021/08/09 10:07:20;;;;;;;1.52;0.00;;;20.50;99.90;;;;;;5093686;28;20032;-78
2021/08/09 10:09:49;;;;;;;2.38;0.00;;;20.60;99.90;;;;;;5075352;28;20477;-76
2021/08/09 10:12:22;;;;;;;0.40;0.10;;;20.60;99.90;;;;;;5093318;28;20073;-76
2021/08/09 10:14:48;;;;;;;0.45;0.10;;;20.60;99.90;;;;;;5093989;28;20031;-76
2021/08/09 10:17:15;;;;;;;0.55;0.00;;;20.60;99.90;;;;;;5075426;28;20101;-76
2021/08/09 10:19:43;;;;;;;2.00;0.17;;;20.60;99.90;;;;;;5097409;28;20483;-76
2021/08/09 10:22:08;;;;;;;4.07;0.20;;;20.60;99.90;;;;;;5097216;28;20016;-76
2021/08/09 10:24:40;;;;;;;2.42;0.17;;;20.60;99.90;;;;;;5079192;28;20461;-76
2021/08/09 10:27:06;;;;;;;2.50;0.25;;;20.50;99.90;;;;;;5097530;28;20024;-76
2021/08/09 10:29:32;;;;;;;4.07;0.25;;;20.40;99.90;;;;;;5078944;28;20028;-76
2021/08/09 10:32:18;;;;;;;3.20;0.10;;;20.40;99.90;;;;;;5079005;28;20111;-76
2021/08/09 10:34:44;;;;;;;4.22;0.25;;;20.40;99.90;;;;;;5097150;28;20036;-76
2021/08/09 10:37:16;;;;;;;0.45;0.00;;;20.40;99.90;;;;;;5097151;28;20032;-75
2021/08/09 10:39:59;;;;;;;2.33;0.00;;;20.30;99.90;;;;;;5078890;28;20073;-76
2021/08/09 10:42:58;;;;;;;0.63;0.20;;;20.30;99.90;;;;;;5078799;28;20020;-76
2021/08/09 10:45:36;;;;;;;;;;;20.30;99.90;;;;;;5064184;28;20040;-78
2021/08/09 10:48:04;;;;;;;0.85;0.00;;;20.20;99.90;;;;;;5097705;28;19904;-78
2021/08/09 10:50:40;;;;;;;0.40;0.00;;;20.00;99.90;;;;;;5097276;28;20546;-76
2021/08/09 10:53:28;;;;;;;3.28;0.00;;;19.80;99.90;;;;;;5097136;28;20081;-76
2021/08/09 10:55:56;;;;;;;3.95;0.00;;;19.70;99.90;;;;;;5096665;28;20028;-76
2021/08/09 10:58:43;;;;;;;5.38;0.20;;;19.50;99.90;;;;;;5097113;28;20020;-78
2021/08/09 11:01:15;;;;;;;1.38;0.00;;;19.50;99.90;;;;;;5097083;28;20017;-78
2021/08/09 11:04:00;;;;;;;1.98;0.25;;;19.60;99.90;;;;;;5097987;28;20046;-78
2021/08/09 11:06:50;;;;;;;3.47;0.00;;;19.60;99.90;;;;;;5079263;28;20024;-78
2021/08/09 11:09:35;;;;;;;6.20;0.00;;;19.60;99.90;;;;;;5079289;28;20055;-76
2021/08/09 11:12:21;;;;;;;2.38;0.35;;;19.60;99.90;;;;;;5097138;28;20153;-78
2021/08/09 11:15:11;;;;;;;6.75;0.25;;;19.60;99.90;;;;;;5078764;28;20020;-76
2021/08/09 11:17:36;;;;;;;4.03;0.00;;;19.70;99.90;;;;;;5096736;28;20034;-79
2021/08/09 11:20:20;;;;;;;2.95;0.35;;;19.90;99.90;;;;;;5096693;28;20016;-78
2021/08/09 11:22:55;;;;;;;2.05;0.00;;;20.10;99.90;;;;;;5097132;28;20462;-78
2021/08/09 11:25:31;;;;;;;2.28;0.30;;;20.30;99.90;;;;;;5097263;28;20092;-78
2021/08/09 11:28:06;;;;;;;3.75;0.10;;;20.30;99.90;;;;;;5078480;28;20473;-75
2021/08/09 11:30:39;;;;;;;4.47;0.32;;;20.40;99.90;;;;;;5095205;28;20020;-75
2021/08/09 11:33:06;;;;;;;2.28;0.47;;;20.70;99.90;;;;;;5096032;28;20035;-76
2021/08/09 11:35:41;;;;;;;1.55;0.10;;;20.90;99.90;;;;;;5077814;28;20020;-76
2021/08/09 11:38:06;;;;;;;3.03;0.20;;;21.10;99.90;;;;;;5096485;28;20046;-76
2021/08/09 11:40:37;;;;;;;1.90;0.00;;;21.10;99.90;;;;;;5096582;28;20020;-78
2021/08/09 11:43:03;;;;;;;1.88;0.25;;;21.20;99.90;;;;;;5096535;28;20020;-78
2021/08/09 11:45:29;;;;;;;2.15;0.47;;;21.30;99.90;;;;;;5078441;28;20110;-78
2021/08/09 11:47:55;;;;;;;1.40;0.22;;;21.00;99.90;;;;;;5078563;28;20091;-78
2021/08/09 11:50:23;;;;;;;2.85;0.10;;;20.70;99.90;;;;;;5096953;28;20111;-78
2021/08/09 11:52:50;;;;;;;0.75;0.00;;;20.40;99.90;;;;;;5096634;28;20527;-78
2021/08/09 11:55:22;;;;;;;0.85;0.03;;;20.20;99.90;;;;;;5097229;28;20031;-78
2021/08/09 11:57:49;;;;;;;0.57;0.00;;;20.10;99.90;;;;;;5096944;28;20024;-78
2021/08/09 12:00:15;;;;;;;1.98;0.00;;;20.10;99.90;;;;;;5097190;28;20028;-78
2021/08/09 12:03:07;;;;;;;1.65;0.00;;;20.10;99.90;;;;;;5097312;28;20046;-75
2021/08/09 12:05:33;;;;;;;4.57;0.25;;;20.30;99.90;;;;;;5095437;28;20500;-75
2021/08/09 12:08:05;;;;;;;0.73;0.00;;;20.50;99.90;;;;;;5077310;28;20016;-75
2021/08/09 12:10:35;;;;;;;1.77;0.10;;;20.70;99.90;;;;;;5095558;28;20043;-76
2021/08/09 12:13:02;;;;;;;0.45;0.10;;;21.20;99.90;;;;;;5095566;28;20027;-76
2021/08/09 12:15:28;;;;;;;0.45;0.00;;;21.70;99.90;;;;;;5076966;28;21996;-76
2021/08/09 12:18:07;;;;;;;0.93;0.03;;;22.10;99.90;;;;;;5095188;28;20094;-76
2021/08/09 12:20:34;;;;;;;1.60;0.20;;;22.40;99.90;;;;;;5076954;28;20016;-76
2021/08/09 12:23:00;;;;;;;1.90;0.10;;;22.30;98.50;;;;;;5076866;28;20021;-75
2021/08/09 12:25:39;;;;;;;2.20;0.10;;;22.10;98.00;;;;;;5076819;28;20115;-76
2021/08/09 12:28:06;;;;;;;0.00;0.00;;;21.80;99.80;;;;;;5095068;28;20050;-75
2021/08/09 12:30:52;;;;;;;0.65;0.10;;;21.70;99.90;;;;;;5076689;28;20069;-75
2021/08/09 12:33:18;;;;;;;0.55;0.10;;;21.80;98.80;;;;;;5077575;28;20020;-78
2021/08/09 12:35:44;;;;;;;2.15;0.00;;;22.00;99.90;;;;;;5077032;28;20473;-78
2021/08/09 12:38:12;;;;;;;1.15;0.10;;;22.20;98.40;;;;;;5077949;28;20028;-78
2021/08/09 12:40:38;;;;;;;0.70;0.00;;;22.60;99.80;;;;;;5095719;28;20020;-78
2021/08/09 12:43:09;;;;;;;2.40;0.20;;;22.80;96.90;;;;;;5096070;28;20066;-78
2021/08/09 12:45:35;;;;;;;1.45;0.00;;;23.00;97.80;;;;;;5094532;28;20040;-76
2021/08/09 12:48:06;;;;;;;1.25;0.00;;;23.10;95.50;;;;;;5077056;28;20132;-75
2021/08/09 12:50:33;;;;;;;1.90;0.00;;;23.10;93.20;;;;;;5095431;28;20032;-78
2021/08/09 12:52:58;;;;;;;0.45;0.00;;;23.70;94.70;;;;;;5076671;28;20064;-77